Akune, Japan
Current Conditions -  °F | °C
As of 5:00 PM on Friday 31 Oct 2014 (Local Time) from RJFK Reporting Station
Broken Clouds Broken Clouds  
Wind Chill: 72°   Ceiling: 6000
Heat Index: 72°   Visibility: 6mi
Dew Point: 59°   Wind: 3mph
Humidity: 64%   Direction: 120°ESE
Pressure: 30.03"   Gusts: NA
Location:  32.01°N, 130.2°E
Report Text: RJFK 310800Z 12003KT 9999 FEW025 SCT035 BKN060 22/15 Q1017
Loading
Personal Weather Stations






























Interactive Weather Map
Tropical Storm Tracking
New forecast layout! Learn more

10-Day Weather Forecast

Advertisements
Track Severe Weather on mobile